createdAt,value
2022-07-25T00:02:51.053Z,0.00
2022-07-25T00:08:23.003Z,0.00
2022-07-25T00:13:54.333Z,0.00
2022-07-25T00:19:25.859Z,0.00
2022-07-25T00:24:57.533Z,0.00
2022-07-25T00:30:29.340Z,0.00
2022-07-25T00:36:01.473Z,0.00
2022-07-25T00:41:33.297Z,0.00
2022-07-25T00:47:05.437Z,0.00
2022-07-25T00:52:36.921Z,0.00
2022-07-25T00:58:08.568Z,0.00
2022-07-25T03:04:20.638Z,0.00
2022-07-25T03:09:52.395Z,0.00
2022-07-25T03:15:24.248Z,0.00
2022-07-25T03:20:56.127Z,0.00
2022-07-25T03:26:28.012Z,1.00
2022-07-25T03:31:59.801Z,8.00
2022-07-25T03:37:31.561Z,16.00
2022-07-25T03:43:03.366Z,26.78
2022-07-25T03:48:35.363Z,13.09
2022-07-25T03:54:07.927Z,-6.65
2022-07-25T03:59:39.497Z,-10.82
2022-07-25T04:05:11.565Z,-8.89
2022-07-25T04:10:43.046Z,0.97
2022-07-25T04:16:15.098Z,15.27
2022-07-25T04:21:46.803Z,33.22
2022-07-25T04:27:18.514Z,53.73
2022-07-25T04:32:50.325Z,79.35
2022-07-25T04:38:21.956Z,104.98
2022-07-25T04:43:53.864Z,134.82
2022-07-25T04:49:25.442Z,162.76
2022-07-25T04:54:57.471Z,196.36
2022-07-25T05:00:29.579Z,223.29
2022-07-25T05:06:01.399Z,254.86
2022-07-25T05:11:33.100Z,241.65
2022-07-25T05:17:04.821Z,244.13
2022-07-25T05:22:36.715Z,264.13
2022-07-25T05:28:08.436Z,282.91
2022-07-25T05:33:40.139Z,301.03
2022-07-25T05:39:11.991Z,318.83
2022-07-25T05:44:43.637Z,340.13
2022-07-25T05:50:15.562Z,466.05
2022-07-25T05:55:47.389Z,497.12
2022-07-25T06:01:19.148Z,527.03
2022-07-25T06:06:50.878Z,564.47
2022-07-25T06:12:24.252Z,593.45
2022-07-25T06:17:54.217Z,618.12
2022-07-25T06:23:27.774Z,646.43
2022-07-25T06:28:57.680Z,670.64
2022-07-25T06:34:29.101Z,699.16
2022-07-25T06:40:01.066Z,719.91
2022-07-25T06:45:32.721Z,744.01
2022-07-25T06:51:04.518Z,767.78
2022-07-25T06:53:15.874Z,773.78
2022-07-25T07:04:16.500Z,829.18
2022-07-25T07:09:47.997Z,875.53
2022-07-25T07:15:20.235Z,959.42
2022-07-25T07:20:51.804Z,2917.27
2022-07-25T07:26:23.603Z,2343.29
2022-07-25T07:31:57.618Z,3318.77
2022-07-25T07:37:33.677Z,3509.08
2022-07-25T07:43:00.895Z,3277.81
2022-07-25T07:48:33.015Z,3175.54
2022-07-25T07:54:04.458Z,3707.32
2022-07-25T07:59:36.438Z,2974.61
2022-07-25T08:10:37.300Z,4590.13
2022-07-25T08:16:09.164Z,4470.73
2022-07-25T08:23:59.936Z,4821.38
2022-07-25T08:35:01.333Z,4165.81
2022-07-25T08:40:33.178Z,4553.30
2022-07-25T08:46:04.987Z,5271.59
2022-07-25T08:51:36.763Z,5097.06
2022-07-25T08:57:08.501Z,4623.81
2022-07-25T09:02:40.458Z,5432.48
2022-07-25T09:13:41.092Z,5256.55
2022-07-25T09:19:13.591Z,5715.97
2022-07-25T09:24:45.360Z,5731.55
2022-07-25T09:30:17.145Z,3905.04
2022-07-25T09:35:48.892Z,728.73
2022-07-25T09:41:20.380Z,727.22
2022-07-25T09:46:51.935Z,694.10
2022-07-25T09:52:23.485Z,696.65
2022-07-25T09:58:17.411Z,702.21
2022-07-25T10:03:49.456Z,713.21
2022-07-25T10:09:21.216Z,700.21
2022-07-25T10:14:52.682Z,677.31
2022-07-25T10:20:24.106Z,658.84
2022-07-25T10:25:55.836Z,662.39
2022-07-25T10:31:27.608Z,638.72
2022-07-25T10:36:59.148Z,620.70
2022-07-25T10:42:30.880Z,610.15
2022-07-25T10:48:02.803Z,599.91
2022-07-25T10:53:34.396Z,581.12
2022-07-25T10:59:06.364Z,564.55
2022-07-25T11:04:37.990Z,554.21
2022-07-25T11:10:09.697Z,541.65
2022-07-25T11:15:41.635Z,529.09
2022-07-25T11:21:13.348Z,522.08
2022-07-25T11:26:45.185Z,506.96
2022-07-25T11:32:17.191Z,493.18
2022-07-25T11:37:49.005Z,482.39
2022-07-25T11:43:20.522Z,474.38
2022-07-25T11:48:52.414Z,467.05
2022-07-25T11:54:24.238Z,462.26
2022-07-25T11:59:56.023Z,456.03
2022-07-25T12:05:27.721Z,441.15
2022-07-25T12:10:59.552Z,442.37
2022-07-25T12:16:31.320Z,431.91
2022-07-25T12:22:03.183Z,421.58
2022-07-25T12:27:34.967Z,421.35
2022-07-25T12:33:06.827Z,417.12
2022-07-25T12:38:38.648Z,412.34
2022-07-25T12:44:10.147Z,406.24
2022-07-25T12:49:41.814Z,401.56
2022-07-25T12:55:13.511Z,396.01
2022-07-25T13:00:45.208Z,397.24
2022-07-25T13:06:17.303Z,389.23
2022-07-25T13:11:48.896Z,387.45
2022-07-25T13:17:26.514Z,376.67
2022-07-25T13:22:52.215Z,371.11
2022-07-25T13:28:23.926Z,366.33
2022-07-25T13:33:55.813Z,361.55
2022-07-25T13:39:27.231Z,355.10
2022-07-25T13:44:58.837Z,355.32
2022-07-25T13:50:30.515Z,347.76
2022-07-25T13:56:02.008Z,343.76
2022-07-25T14:01:33.923Z,341.09
2022-07-25T14:07:05.112Z,335.08
2022-07-25T14:18:08.297Z,331.30
2022-07-25T14:23:40.120Z,330.20
2022-07-25T14:29:11.757Z,326.97
2022-07-25T14:34:43.330Z,326.74
2022-07-25T14:40:15.113Z,322.97
2022-07-25T14:45:46.800Z,320.52
2022-07-25T14:51:18.813Z,316.97
2022-07-25T14:56:50.360Z,317.97
2022-07-25T15:02:21.698Z,311.86
2022-07-25T15:07:53.637Z,310.86
2022-07-25T15:13:31.435Z,311.74
2022-07-25T15:24:29.518Z,301.94
2022-07-25T15:35:30.882Z,301.61
2022-07-25T15:41:02.435Z,298.83
2022-07-25T15:46:34.131Z,294.26
2022-07-25T15:52:05.522Z,288.81
2022-07-25T15:57:37.056Z,290.36
2022-07-25T16:03:14.360Z,285.91
2022-07-25T16:08:46.140Z,281.57
2022-07-25T16:14:17.850Z,276.45
2022-07-25T16:19:49.386Z,272.55
2022-07-25T16:25:20.961Z,265.65
2022-07-25T16:30:52.833Z,260.75
2022-07-25T16:41:56.525Z,243.52
2022-07-25T16:47:28.382Z,234.07
2022-07-25T16:52:59.873Z,223.84
2022-07-25T16:58:31.612Z,219.39
2022-07-25T17:04:03.440Z,208.16
2022-07-25T17:09:35.363Z,201.03
2022-07-25T17:15:07.499Z,191.45
2022-07-25T17:20:39.224Z,178.89
2022-07-25T17:26:10.996Z,162.10
2022-07-25T17:31:42.512Z,146.85
2022-07-25T17:37:14.299Z,139.13
2022-07-25T17:42:47.988Z,131.62
2022-07-25T17:53:49.603Z,102.69
2022-07-25T18:10:22.807Z,62.28
2022-07-25T18:15:54.918Z,54.72
2022-07-25T18:21:26.330Z,46.83
2022-07-25T18:26:58.131Z,37.93
2022-07-25T18:32:29.637Z,35.57
2022-07-25T18:49:00.703Z,18.40
2022-07-25T18:54:32.469Z,19.03
2022-07-25T19:00:04.103Z,8.00
2022-07-25T19:05:36.065Z,0.00
2022-07-25T19:11:07.349Z,0.00
2022-07-25T19:16:39.214Z,0.00
2022-07-25T19:27:40.345Z,0.00
2022-07-25T19:33:11.937Z,0.00
2022-07-25T19:38:43.924Z,0.00
2022-07-25T19:49:45.193Z,0.00
2022-07-25T19:55:17.259Z,0.00
2022-07-25T20:00:49.297Z,0.00
2022-07-25T20:14:14.781Z,0.00
2022-07-25T20:19:47.702Z,0.00
2022-07-25T20:25:19.889Z,0.00
2022-07-25T20:30:52.452Z,0.00
2022-07-25T20:36:24.487Z,0.00
2022-07-25T20:41:56.517Z,0.00
2022-07-25T20:47:28.520Z,0.00
2022-07-25T20:53:00.330Z,0.00
2022-07-25T21:04:07.048Z,0.00
2022-07-25T21:09:33.801Z,0.00
2022-07-25T21:17:27.186Z,0.00
2022-07-25T21:22:59.473Z,0.00
2022-07-25T21:28:31.212Z,0.00
2022-07-25T21:34:03.138Z,0.00
2022-07-25T21:39:35.051Z,0.00
2022-07-25T21:45:06.561Z,0.00
2022-07-25T21:50:42.172Z,0.00
2022-07-25T21:56:10.169Z,0.00
2022-07-25T22:01:42.107Z,0.00
2022-07-25T22:07:13.736Z,0.00
2022-07-25T22:12:45.978Z,0.00
2022-07-25T22:18:17.826Z,0.00
2022-07-25T22:23:49.641Z,0.00
2022-07-25T22:29:21.258Z,0.00
2022-07-25T22:34:53.027Z,0.00
2022-07-25T22:40:24.964Z,0.00
2022-07-25T22:45:57.047Z,0.00
2022-07-25T22:51:28.482Z,0.00
2022-07-25T22:57:00.691Z,0.00
2022-07-25T23:02:32.320Z,0.00
2022-07-25T23:13:33.523Z,0.00
2022-07-25T23:24:37.770Z,0.00
2022-07-25T23:30:06.874Z,0.00
2022-07-25T23:35:39.116Z,0.00
2022-07-25T23:41:10.758Z,0.00
2022-07-25T23:52:12.164Z,0.00
2022-07-25T23:57:43.773Z,0.00
